sensor_id;sensor_type;location;lat;lon;timestamp;pressure;altitude;pressure_sealevel;temperature;humidity
73063;BME280;61230;46.328;19.972;2023-09-18T00:01:08;100835.53;;;17.90;100.00
73063;BME280;61230;46.328;19.972;2023-09-18T00:03:36;100841.16;;;17.95;100.00
73063;BME280;61230;46.328;19.972;2023-09-18T00:06:03;100837.66;;;17.95;100.00
73063;BME280;61230;46.328;19.972;2023-09-18T00:08:31;100837.37;;;17.90;100.00
73063;BME280;61230;46.328;19.972;2023-09-18T00:10:59;100806.41;;;17.66;100.00
73063;BME280;61230;46.328;19.972;2023-09-18T00:13:28;100840.37;;;17.87;100.00
73063;BME280;61230;46.328;19.972;2023-09-18T00:15:55;100836.87;;;17.86;100.00
73063;BME280;61230;46.328;19.972;2023-09-18T00:18:23;100838.53;;;17.87;100.00
73063;BME280;61230;46.328;19.972;2023-09-18T00:20:51;100792.63;;;17.62;100.00
73063;BME280;61230;46.328;19.972;2023-09-18T00:23:19;100837.59;;;17.80;100.00
73063;BME280;61230;46.328;19.972;2023-09-18T00:25:47;100832.09;;;17.82;100.00
73063;BME280;61230;46.328;19.972;2023-09-18T00:28:14;100798.66;;;17.48;100.00
73063;BME280;61230;46.328;19.972;2023-09-18T00:30:47;100832.50;;;17.70;100.00
73063;BME280;61230;46.328;19.972;2023-09-18T00:33:16;100823.69;;;17.70;100.00
73063;BME280;61230;46.328;19.972;2023-09-18T00:35:48;100826.50;;;17.68;100.00
73063;BME280;61230;46.328;19.972;2023-09-18T00:38:16;100814.22;;;17.67;100.00
73063;BME280;61230;46.328;19.972;2023-09-18T00:40:44;100803.81;;;17.58;100.00
73063;BME280;61230;46.328;19.972;2023-09-18T00:43:12;100820.06;;;17.63;100.00
73063;BME280;61230;46.328;19.972;2023-09-18T00:45:43;100779.09;;;17.41;100.00
73063;BME280;61230;46.328;19.972;2023-09-18T00:48:12;100825.22;;;17.64;100.00
73063;BME280;61230;46.328;19.972;2023-09-18T00:50:40;100826.06;;;17.65;100.00
73063;BME280;61230;46.328;19.972;2023-09-18T00:53:08;100824.56;;;17.62;100.00
73063;BME280;61230;46.328;19.972;2023-09-18T00:55:39;100771.34;;;17.32;100.00
73063;BME280;61230;46.328;19.972;2023-09-18T00:58:07;100824.25;;;17.57;100.00
73063;BME280;61230;46.328;19.972;2023-09-18T01:00:34;100780.81;;;17.34;100.00
73063;BME280;61230;46.328;19.972;2023-09-18T01:03:02;100819.97;;;17.56;100.00
73063;BME280;61230;46.328;19.972;2023-09-18T01:05:33;100812.12;;;17.55;100.00
73063;BME280;61230;46.328;19.972;2023-09-18T01:08:02;100816.63;;;17.54;100.00
73063;BME280;61230;46.328;19.972;2023-09-18T01:10:35;100818.50;;;17.54;100.00
73063;BME280;61230;46.328;19.972;2023-09-18T01:13:12;100822.09;;;17.53;100.00
73063;BME280;61230;46.328;19.972;2023-09-18T01:15:49;100823.28;;;17.50;100.00
73063;BME280;61230;46.328;19.972;2023-09-18T01:18:18;100832.09;;;17.51;100.00
73063;BME280;61230;46.328;19.972;2023-09-18T01:20:46;100834.28;;;17.47;100.00
73063;BME280;61230;46.328;19.972;2023-09-18T01:23:13;100828.97;;;17.47;100.00
73063;BME280;61230;46.328;19.972;2023-09-18T01:25:41;100823.78;;;17.46;100.00
73063;BME280;61230;46.328;19.972;2023-09-18T01:28:09;100825.16;;;17.42;100.00
73063;BME280;61230;46.328;19.972;2023-09-18T01:30:36;100780.13;;;17.09;100.00
73063;BME280;61230;46.328;19.972;2023-09-18T01:33:06;100814.78;;;17.24;100.00
73063;BME280;61230;46.328;19.972;2023-09-18T01:35:34;100815.78;;;17.23;100.00
73063;BME280;61230;46.328;19.972;2023-09-18T01:38:03;100808.81;;;17.22;100.00
73063;BME280;61230;46.328;19.972;2023-09-18T01:40:32;100818.91;;;17.27;100.00
73063;BME280;61230;46.328;19.972;2023-09-18T01:43:00;100823.50;;;17.10;100.00
73063;BME280;61230;46.328;19.972;2023-09-18T01:45:27;100819.84;;;17.11;100.00
73063;BME280;61230;46.328;19.972;2023-09-18T01:47:55;100825.66;;;17.06;100.00
73063;BME280;61230;46.328;19.972;2023-09-18T01:50:23;100821.38;;;17.05;100.00
73063;BME280;61230;46.328;19.972;2023-09-18T01:52:51;100825.16;;;17.03;100.00
73063;BME280;61230;46.328;19.972;2023-09-18T01:55:18;100821.53;;;17.04;100.00
73063;BME280;61230;46.328;19.972;2023-09-18T01:57:46;100831.69;;;16.92;100.00
73063;BME280;61230;46.328;19.972;2023-09-18T02:00:14;100828.53;;;16.97;100.00
73063;BME280;61230;46.328;19.972;2023-09-18T02:02:43;100827.41;;;16.91;100.00
73063;BME280;61230;46.328;19.972;2023-09-18T02:05:30;100828.34;;;16.98;100.00
73063;BME280;61230;46.328;19.972;2023-09-18T02:07:58;100825.53;;;17.00;100.00
73063;BME280;61230;46.328;19.972;2023-09-18T02:10:26;100829.72;;;16.86;100.00
73063;BME280;61230;46.328;19.972;2023-09-18T02:12:54;100788.44;;;16.67;100.00
73063;BME280;61230;46.328;19.972;2023-09-18T02:15:22;100783.47;;;16.64;100.00
73063;BME280;61230;46.328;19.972;2023-09-18T02:17:50;100823.22;;;16.89;100.00
73063;BME280;61230;46.328;19.972;2023-09-18T02:20:17;100789.25;;;16.68;100.00
73063;BME280;61230;46.328;19.972;2023-09-18T02:22:46;100822.88;;;16.92;100.00
73063;BME280;61230;46.328;19.972;2023-09-18T02:25:14;100827.03;;;16.94;100.00
73063;BME280;61230;46.328;19.972;2023-09-18T02:27:41;100831.84;;;16.99;100.00
73063;BME280;61230;46.328;19.972;2023-09-18T02:30:12;100828.53;;;16.97;100.00
73063;BME280;61230;46.328;19.972;2023-09-18T02:32:39;100835.34;;;16.99;100.00
73063;BME280;61230;46.328;19.972;2023-09-18T02:35:07;100829.38;;;16.89;100.00
73063;BME280;61230;46.328;19.972;2023-09-18T02:37:35;100827.75;;;16.88;100.00
73063;BME280;61230;46.328;19.972;2023-09-18T02:40:03;100830.06;;;16.83;100.00
73063;BME280;61230;46.328;19.972;2023-09-18T02:42:32;100831.91;;;16.75;100.00
73063;BME280;61230;46.328;19.972;2023-09-18T02:45:00;100782.31;;;16.51;100.00
73063;BME280;61230;46.328;19.972;2023-09-18T02:47:27;100824.44;;;16.78;100.00
73063;BME280;61230;46.328;19.972;2023-09-18T02:49:56;100762.44;;;16.23;100.00
73063;BME280;61230;46.328;19.972;2023-09-18T02:52:23;100828.28;;;16.67;100.00
73063;BME280;61230;46.328;19.972;2023-09-18T02:54:51;100817.81;;;16.50;100.00
73063;BME280;61230;46.328;19.972;2023-09-18T02:57:19;100831.62;;;16.61;100.00
73063;BME280;61230;46.328;19.972;2023-09-18T02:59:47;100827.28;;;16.52;100.00
73063;BME280;61230;46.328;19.972;2023-09-18T03:02:15;100829.63;;;16.47;100.00
73063;BME280;61230;46.328;19.972;2023-09-18T03:04:42;100789.31;;;16.28;100.00
73063;BME280;61230;46.328;19.972;2023-09-18T03:07:12;100786.34;;;16.23;100.00
73063;BME280;61230;46.328;19.972;2023-09-18T03:09:40;100829.63;;;16.47;100.00
73063;BME280;61230;46.328;19.972;2023-09-18T03:12:08;100809.22;;;16.24;100.00
73063;BME280;61230;46.328;19.972;2023-09-18T03:14:36;100838.09;;;16.35;100.00
73063;BME280;61230;46.328;19.972;2023-09-18T03:17:04;100829.31;;;16.34;100.00
73063;BME280;61230;46.328;19.972;2023-09-18T03:19:32;100833.47;;;16.37;100.00
73063;BME280;61230;46.328;19.972;2023-09-18T03:22:00;100828.50;;;16.34;100.00
73063;BME280;61230;46.328;19.972;2023-09-18T03:24:29;100840.78;;;16.19;100.00
73063;BME280;61230;46.328;19.972;2023-09-18T03:26:57;100828.84;;;16.23;100.00
73063;BME280;61230;46.328;19.972;2023-09-18T03:29:25;100823.34;;;16.24;100.00
73063;BME280;61230;46.328;19.972;2023-09-18T03:31:53;100819.84;;;16.16;100.00
73063;BME280;61230;46.328;19.972;2023-09-18T03:34:20;100825.03;;;16.09;100.00
73063;BME280;61230;46.328;19.972;2023-09-18T03:36:48;100828.34;;;16.11;100.00
73063;BME280;61230;46.328;19.972;2023-09-18T03:39:16;100814.56;;;15.99;100.00
73063;BME280;61230;46.328;19.972;2023-09-18T03:41:43;100820.88;;;16.23;100.00
73063;BME280;61230;46.328;19.972;2023-09-18T03:44:11;100828.50;;;16.18;100.00
73063;BME280;61230;46.328;19.972;2023-09-18T03:46:39;100835.78;;;16.24;100.00
73063;BME280;61230;46.328;19.972;2023-09-18T03:49:07;100834.47;;;16.20;100.00
73063;BME280;61230;46.328;19.972;2023-09-18T03:51:36;100835.12;;;16.22;100.00
73063;BME280;61230;46.328;19.972;2023-09-18T03:54:04;100840.59;;;16.12;100.00
73063;BME280;61230;46.328;19.972;2023-09-18T03:56:31;100838.62;;;16.06;100.00
73063;BME280;61230;46.328;19.972;2023-09-18T03:58:59;100827.97;;;15.98;100.00
73063;BME280;61230;46.328;19.972;2023-09-18T04:01:28;100826.66;;;15.94;100.00
73063;BME280;61230;46.328;19.972;2023-09-18T04:03:56;100821.03;;;16.05;100.00
73063;BME280;61230;46.328;19.972;2023-09-18T04:06:24;100823.50;;;16.06;100.00
73063;BME280;61230;46.328;19.972;2023-09-18T04:08:51;100820.03;;;16.06;100.00
73063;BME280;61230;46.328;19.972;2023-09-18T04:11:20;100829.31;;;16.10;100.00
73063;BME280;61230;46.328;19.972;2023-09-18T04:13:52;100826.00;;;16.16;100.00
73063;BME280;61230;46.328;19.972;2023-09-18T04:16:20;100817.38;;;16.14;100.00
73063;BME280;61230;46.328;19.972;2023-09-18T04:18:48;100811.56;;;16.19;100.00
73063;BME280;61230;46.328;19.972;2023-09-18T04:21:17;100809.25;;;16.16;100.00
73063;BME280;61230;46.328;19.972;2023-09-18T04:23:44;100811.75;;;16.17;100.00
73063;BME280;61230;46.328;19.972;2023-09-18T04:26:12;100799.97;;;16.20;100.00
73063;BME280;61230;46.328;19.972;2023-09-18T04:28:43;100804.44;;;16.11;100.00
73063;BME280;61230;46.328;19.972;2023-09-18T04:31:11;100802.44;;;16.13;100.00
73063;BME280;61230;46.328;19.972;2023-09-18T04:33:39;100795.31;;;16.14;100.00
73063;BME280;61230;46.328;19.972;2023-09-18T04:36:07;100795.47;;;16.20;100.00
73063;BME280;61230;46.328;19.972;2023-09-18T04:38:36;100800.09;;;16.18;100.00
73063;BME280;61230;46.328;19.972;2023-09-18T04:41:04;100792.81;;;16.20;100.00
73063;BME280;61230;46.328;19.972;2023-09-18T04:43:31;100796.63;;;16.26;100.00
73063;BME280;61230;46.328;19.972;2023-09-18T04:46:00;100795.16;;;16.23;100.00
73063;BME280;61230;46.328;19.972;2023-09-18T04:48:28;100800.78;;;16.28;100.00
73063;BME280;61230;46.328;19.972;2023-09-18T04:50:56;100799.09;;;16.35;100.00
73063;BME280;61230;46.328;19.972;2023-09-18T04:53:27;100801.94;;;16.34;100.00
73063;BME280;61230;46.328;19.972;2023-09-18T04:55:54;100803.22;;;16.38;100.00
73063;BME280;61230;46.328;19.972;2023-09-18T04:58:23;100802.91;;;16.41;100.00
73063;BME280;61230;46.328;19.972;2023-09-18T05:00:55;100798.09;;;16.44;100.00
73063;BME280;61230;46.328;19.972;2023-09-18T05:03:23;100788.97;;;16.39;100.00
73063;BME280;61230;46.328;19.972;2023-09-18T05:05:52;100794.91;;;16.49;100.00
73063;BME280;61230;46.328;19.972;2023-09-18T05:08:20;100792.63;;;16.54;100.00
73063;BME280;61230;46.328;19.972;2023-09-18T05:10:47;100796.25;;;16.53;100.00
73063;BME280;61230;46.328;19.972;2023-09-18T05:13:15;100795.94;;;16.56;100.00
73063;BME280;61230;46.328;19.972;2023-09-18T05:15:43;100798.41;;;16.65;100.00
73063;BME280;61230;46.328;19.972;2023-09-18T05:18:10;100802.03;;;16.73;100.00
73063;BME280;61230;46.328;19.972;2023-09-18T05:20:38;100795.38;;;16.77;100.00
73063;BME280;61230;46.328;19.972;2023-09-18T05:23:05;100807.16;;;16.82;100.00
73063;BME280;61230;46.328;19.972;2023-09-18T05:25:34;100768.16;;;16.66;100.00
73063;BME280;61230;46.328;19.972;2023-09-18T05:28:05;100809.25;;;16.95;100.00
73063;BME280;61230;46.328;19.972;2023-09-18T05:30:34;100806.75;;;17.01;100.00
73063;BME280;61230;46.328;19.972;2023-09-18T05:33:03;100804.22;;;17.08;100.00
73063;BME280;61230;46.328;19.972;2023-09-18T05:35:41;100802.19;;;17.18;100.00
73063;BME280;61230;46.328;19.972;2023-09-18T05:38:13;100810.09;;;17.26;100.00
73063;BME280;61230;46.328;19.972;2023-09-18T05:40:42;100800.09;;;17.36;100.00
73063;BME280;61230;46.328;19.972;2023-09-18T05:43:11;100801.03;;;17.43;100.00
73063;BME280;61230;46.328;19.972;2023-09-18T05:45:39;100796.31;;;17.61;100.00
73063;BME280;61230;46.328;19.972;2023-09-18T05:48:08;100797.19;;;17.76;100.00
73063;BME280;61230;46.328;19.972;2023-09-18T05:50:37;100793.44;;;17.86;100.00
73063;BME280;61230;46.328;19.972;2023-09-18T05:53:05;100788.44;;;17.91;100.00
73063;BME280;61230;46.328;19.972;2023-09-18T05:55:33;100774.97;;;18.07;100.00
73063;BME280;61230;46.328;19.972;2023-09-18T05:58:02;100785.31;;;18.24;100.00
73063;BME280;61230;46.328;19.972;2023-09-18T06:00:32;100778.06;;;18.48;100.00
73063;BME280;61230;46.328;19.972;2023-09-18T06:03:00;100747.59;;;18.50;100.00
73063;BME280;61230;46.328;19.972;2023-09-18T06:05:29;100776.34;;;18.84;100.00
73063;BME280;61230;46.328;19.972;2023-09-18T06:08:00;100778.44;;;19.03;100.00
73063;BME280;61230;46.328;19.972;2023-09-18T06:10:28;100777.13;;;19.14;100.00
73063;BME280;61230;46.328;19.972;2023-09-18T06:12:55;100776.97;;;19.36;100.00
73063;BME280;61230;46.328;19.972;2023-09-18T06:15:23;100777.47;;;19.40;100.00
73063;BME280;61230;46.328;19.972;2023-09-18T06:17:51;100775.00;;;19.60;99.65
73063;BME280;61230;46.328;19.972;2023-09-18T06:20:18;100770.97;;;19.70;99.00
73063;BME280;61230;46.328;19.972;2023-09-18T06:22:46;100773.53;;;19.78;97.92
73063;BME280;61230;46.328;19.972;2023-09-18T06:25:14;100767.94;;;19.94;96.73
73063;BME280;61230;46.328;19.972;2023-09-18T06:27:42;100765.19;;;20.09;95.81
73063;BME280;61230;46.328;19.972;2023-09-18T06:30:09;100776.53;;;20.18;95.15
73063;BME280;61230;46.328;19.972;2023-09-18T06:32:37;100775.25;;;20.35;93.58
73063;BME280;61230;46.328;19.972;2023-09-18T06:35:05;100771.22;;;20.45;92.45
73063;BME280;61230;46.328;19.972;2023-09-18T06:37:33;100778.34;;;20.66;91.65
73063;BME280;61230;46.328;19.972;2023-09-18T06:40:01;100772.81;;;20.74;90.78
73063;BME280;61230;46.328;19.972;2023-09-18T06:42:32;100777.41;;;20.87;89.95
73063;BME280;61230;46.328;19.972;2023-09-18T06:45:00;100773.31;;;20.97;89.36
73063;BME280;61230;46.328;19.972;2023-09-18T06:47:29;100762.72;;;21.10;88.56
73063;BME280;61230;46.328;19.972;2023-09-18T06:49:57;100730.28;;;20.86;88.82
73063;BME280;61230;46.328;19.972;2023-09-18T06:52:25;100736.50;;;21.06;87.75
73063;BME280;61230;46.328;19.972;2023-09-18T06:54:53;100768.94;;;21.24;87.91
73063;BME280;61230;46.328;19.972;2023-09-18T06:57:21;100779.28;;;21.34;87.80
73063;BME280;61230;46.328;19.972;2023-09-18T06:59:48;100769.41;;;21.34;86.75
73063;BME280;61230;46.328;19.972;2023-09-18T07:02:16;100775.16;;;21.38;86.90
73063;BME280;61230;46.328;19.972;2023-09-18T07:04:44;100773.94;;;21.47;86.76
73063;BME280;61230;46.328;19.972;2023-09-18T07:07:15;100782.19;;;21.52;85.77
73063;BME280;61230;46.328;19.972;2023-09-18T07:09:43;100773.16;;;21.59;84.47
73063;BME280;61230;46.328;19.972;2023-09-18T07:12:30;100784.09;;;21.71;84.77
73063;BME280;61230;46.328;19.972;2023-09-18T07:15:02;100781.41;;;21.77;84.53
73063;BME280;61230;46.328;19.972;2023-09-18T07:17:33;100735.87;;;21.64;83.53
73063;BME280;61230;46.328;19.972;2023-09-18T07:20:03;100744.53;;;21.73;83.32
73063;BME280;61230;46.328;19.972;2023-09-18T07:22:45;100778.78;;;22.04;83.12
73063;BME280;61230;46.328;19.972;2023-09-18T07:25:15;100744.75;;;21.98;82.94
73063;BME280;61230;46.328;19.972;2023-09-18T07:27:43;100767.44;;;22.21;82.40
73063;BME280;61230;46.328;19.972;2023-09-18T07:30:14;100779.16;;;22.33;81.86
73063;BME280;61230;46.328;19.972;2023-09-18T07:32:47;100763.69;;;22.36;81.48
73063;BME280;61230;46.328;19.972;2023-09-18T07:35:14;100774.62;;;22.41;81.33
73063;BME280;61230;46.328;19.972;2023-09-18T07:37:43;100767.41;;;22.48;80.69
73063;BME280;61230;46.328;19.972;2023-09-18T07:40:13;100762.66;;;22.50;80.84
73063;BME280;61230;46.328;19.972;2023-09-18T07:42:40;100759.72;;;22.71;80.43
73063;BME280;61230;46.328;19.972;2023-09-18T07:45:08;100764.00;;;22.85;80.16
73063;BME280;61230;46.328;19.972;2023-09-18T07:47:36;100764.22;;;22.90;78.36
73063;BME280;61230;46.328;19.972;2023-09-18T07:50:05;100767.69;;;22.90;77.85
73063;BME280;61230;46.328;19.972;2023-09-18T07:52:33;100769.34;;;22.98;77.87
73063;BME280;61230;46.328;19.972;2023-09-18T07:55:00;100758.53;;;23.05;77.60
73063;BME280;61230;46.328;19.972;2023-09-18T07:57:28;100754.75;;;23.19;76.98
73063;BME280;61230;46.328;19.972;2023-09-18T07:59:58;100758.28;;;23.57;76.39
73063;BME280;61230;46.328;19.972;2023-09-18T08:02:26;100767.62;;;23.55;76.00
73063;BME280;61230;46.328;19.972;2023-09-18T08:04:56;100755.75;;;23.69;76.20
73063;BME280;61230;46.328;19.972;2023-09-18T08:07:24;100760.56;;;23.85;75.71
73063;BME280;61230;46.328;19.972;2023-09-18T08:09:52;100765.47;;;23.94;73.76
73063;BME280;61230;46.328;19.972;2023-09-18T08:12:20;100698.34;;;23.57;74.54
73063;BME280;61230;46.328;19.972;2023-09-18T08:14:47;100766.59;;;24.05;73.59
73063;BME280;61230;46.328;19.972;2023-09-18T08:17:17;100745.97;;;23.99;72.95
73063;BME280;61230;46.328;19.972;2023-09-18T08:19:50;100735.81;;;24.01;72.65
73063;BME280;61230;46.328;19.972;2023-09-18T08:22:19;100778.34;;;24.35;72.36
73063;BME280;61230;46.328;19.972;2023-09-18T08:24:48;100769.69;;;24.33;72.43
73063;BME280;61230;46.328;19.972;2023-09-18T08:27:17;100776.13;;;24.50;72.22
73063;BME280;61230;46.328;19.972;2023-09-18T08:29:46;100771.66;;;24.63;71.51
73063;BME280;61230;46.328;19.972;2023-09-18T08:32:14;100763.44;;;24.76;71.01
73063;BME280;61230;46.328;19.972;2023-09-18T08:34:42;100762.16;;;24.78;69.49
73063;BME280;61230;46.328;19.972;2023-09-18T08:37:10;100721.87;;;24.72;69.61
73063;BME280;61230;46.328;19.972;2023-09-18T08:39:38;100748.81;;;24.90;69.18
73063;BME280;61230;46.328;19.972;2023-09-18T08:42:07;100739.81;;;24.96;68.65
73063;BME280;61230;46.328;19.972;2023-09-18T08:44:38;100739.09;;;25.19;68.71
73063;BME280;61230;46.328;19.972;2023-09-18T08:47:08;100692.69;;;25.05;67.86
73063;BME280;61230;46.328;19.972;2023-09-18T08:49:37;100724.47;;;25.26;68.20
73063;BME280;61230;46.328;19.972;2023-09-18T08:52:06;100735.03;;;25.28;67.94
73063;BME280;61230;46.328;19.972;2023-09-18T08:54:34;100730.75;;;25.38;67.81
73063;BME280;61230;46.328;19.972;2023-09-18T08:57:01;100734.34;;;25.32;67.16
73063;BME280;61230;46.328;19.972;2023-09-18T08:59:31;100728.87;;;25.39;66.59
73063;BME280;61230;46.328;19.972;2023-09-18T09:01:59;100731.75;;;25.55;66.86
73063;BME280;61230;46.328;19.972;2023-09-18T09:04:26;100717.81;;;25.58;66.14
73063;BME280;61230;46.328;19.972;2023-09-18T09:06:54;100702.00;;;25.62;66.27
73063;BME280;61230;46.328;19.972;2023-09-18T09:09:25;100714.44;;;25.75;65.98
73063;BME280;61230;46.328;19.972;2023-09-18T09:11:57;100696.19;;;25.77;66.15
73063;BME280;61230;46.328;19.972;2023-09-18T09:14:25;100704.03;;;25.90;65.30
73063;BME280;61230;46.328;19.972;2023-09-18T09:16:56;100697.44;;;25.86;65.21
73063;BME280;61230;46.328;19.972;2023-09-18T09:19:32;100693.34;;;25.95;65.47
73063;BME280;61230;46.328;19.972;2023-09-18T09:22:02;100689.50;;;26.02;65.38
73063;BME280;61230;46.328;19.972;2023-09-18T09:24:40;100697.25;;;26.10;65.12
73063;BME280;61230;46.328;19.972;2023-09-18T09:27:09;100696.78;;;26.25;65.25
73063;BME280;61230;46.328;19.972;2023-09-18T09:29:37;100690.09;;;26.16;64.22
73063;BME280;61230;46.328;19.972;2023-09-18T09:32:15;100696.31;;;26.28;64.45
73063;BME280;61230;46.328;19.972;2023-09-18T09:34:44;100687.63;;;26.26;64.10
73063;BME280;61230;46.328;19.972;2023-09-18T09:37:13;100685.84;;;26.32;64.36
73063;BME280;61230;46.328;19.972;2023-09-18T09:39:51;100691.72;;;26.40;63.36
73063;BME280;61230;46.328;19.972;2023-09-18T09:42:20;100650.19;;;26.30;63.15
73063;BME280;61230;46.328;19.972;2023-09-18T09:45:04;100674.19;;;26.54;63.24
73063;BME280;61230;46.328;19.972;2023-09-18T09:47:34;100662.91;;;26.57;62.95
73063;BME280;61230;46.328;19.972;2023-09-18T09:50:12;100631.47;;;26.51;63.09
73063;BME280;61230;46.328;19.972;2023-09-18T09:52:43;100629.12;;;26.55;62.56
73063;BME280;61230;46.328;19.972;2023-09-18T09:55:19;100655.81;;;26.68;62.59
73063;BME280;61230;46.328;19.972;2023-09-18T09:57:50;100658.75;;;26.78;61.86
73063;BME280;61230;46.328;19.972;2023-09-18T10:00:18;100662.31;;;26.78;60.74
73063;BME280;61230;46.328;19.972;2023-09-18T10:03:03;100656.03;;;26.90;61.41
73063;BME280;61230;46.328;19.972;2023-09-18T10:05:34;100650.25;;;27.14;61.60
73063;BME280;61230;46.328;19.972;2023-09-18T10:08:07;100659.09;;;27.10;61.16
73063;BME280;61230;46.328;19.972;2023-09-18T10:10:38;100655.16;;;27.01;60.38
73063;BME280;61230;46.328;19.972;2023-09-18T10:13:12;100625.19;;;27.02;60.19
73063;BME280;61230;46.328;19.972;2023-09-18T10:15:43;100659.47;;;27.30;59.52
73063;BME280;61230;46.328;19.972;2023-09-18T10:21:16;100651.38;;;27.47;58.97
73063;BME280;61230;46.328;19.972;2023-09-18T10:26:51;100651.47;;;27.68;57.48
73063;BME280;61230;46.328;19.972;2023-09-18T10:29:23;100648.34;;;27.76;57.34
73063;BME280;61230;46.328;19.972;2023-09-18T10:31:54;100645.53;;;27.88;57.41
73063;BME280;61230;46.328;19.972;2023-09-18T10:34:24;100639.06;;;27.89;57.18
73063;BME280;61230;46.328;19.972;2023-09-18T10:36:53;100648.31;;;28.10;56.01
73063;BME280;61230;46.328;19.972;2023-09-18T10:39:24;100653.31;;;28.18;55.79
73063;BME280;61230;46.328;19.972;2023-09-18T10:41:54;100650.22;;;28.31;55.33
73063;BME280;61230;46.328;19.972;2023-09-18T10:44:23;100629.22;;;28.21;55.85
73063;BME280;61230;46.328;19.972;2023-09-18T10:46:52;100645.31;;;28.28;54.92
73063;BME280;61230;46.328;19.972;2023-09-18T10:49:20;100630.37;;;28.25;54.49
73063;BME280;61230;46.328;19.972;2023-09-18T10:51:53;100642.53;;;28.23;54.22
73063;BME280;61230;46.328;19.972;2023-09-18T10:54:23;100628.38;;;28.37;53.59
73063;BME280;61230;46.328;19.972;2023-09-18T10:56:52;100624.41;;;28.45;53.75
73063;BME280;61230;46.328;19.972;2023-09-18T10:59:20;100631.13;;;28.64;54.08
73063;BME280;61230;46.328;19.972;2023-09-18T11:01:50;100628.50;;;28.69;53.55
73063;BME280;61230;46.328;19.972;2023-09-18T11:04:20;100621.66;;;28.88;52.56
73063;BME280;61230;46.328;19.972;2023-09-18T11:09:29;100611.94;;;28.66;53.04
73063;BME280;61230;46.328;19.972;2023-09-18T11:17:28;100599.59;;;29.06;52.31
73063;BME280;61230;46.328;19.972;2023-09-18T11:20:08;100596.19;;;29.21;51.17
73063;BME280;61230;46.328;19.972;2023-09-18T11:22:40;100603.59;;;29.26;48.64
73063;BME280;61230;46.328;19.972;2023-09-18T11:25:38;100597.28;;;29.20;50.01
73063;BME280;61230;46.328;19.972;2023-09-18T11:28:06;100599.00;;;28.99;50.73
73063;BME280;61230;46.328;19.972;2023-09-18T11:30:37;100600.00;;;29.20;50.73
73063;BME280;61230;46.328;19.972;2023-09-18T11:33:06;100596.13;;;29.11;50.62
73063;BME280;61230;46.328;19.972;2023-09-18T11:35:35;100586.03;;;29.06;50.31
73063;BME280;61230;46.328;19.972;2023-09-18T11:38:07;100587.72;;;29.13;50.94
73063;BME280;61230;46.328;19.972;2023-09-18T11:40:37;100579.56;;;29.07;50.50
73063;BME280;61230;46.328;19.972;2023-09-18T11:43:25;100579.34;;;29.14;50.60
73063;BME280;61230;46.328;19.972;2023-09-18T11:45:55;100580.81;;;29.27;49.67
73063;BME280;61230;46.328;19.972;2023-09-18T11:48:26;100568.72;;;29.07;48.74
73063;BME280;61230;46.328;19.972;2023-09-18T11:50:58;100561.47;;;29.18;48.75
73063;BME280;61230;46.328;19.972;2023-09-18T11:53:27;100562.44;;;29.29;47.91
73063;BME280;61230;46.328;19.972;2023-09-18T11:55:55;100530.72;;;28.97;48.81
73063;BME280;61230;46.328;19.972;2023-09-18T11:58:23;100543.78;;;29.37;49.05
73063;BME280;61230;46.328;19.972;2023-09-18T12:00:52;100549.94;;;29.28;48.58
73063;BME280;61230;46.328;19.972;2023-09-18T12:03:23;100541.72;;;29.54;48.49
73063;BME280;61230;46.328;19.972;2023-09-18T12:05:59;100539.94;;;29.33;46.96
73063;BME280;61230;46.328;19.972;2023-09-18T12:08:29;100542.16;;;29.41;46.53
73063;BME280;61230;46.328;19.972;2023-09-18T12:10:58;100514.56;;;29.18;47.05
73063;BME280;61230;46.328;19.972;2023-09-18T12:13:27;100540.28;;;29.47;47.04
73063;BME280;61230;46.328;19.972;2023-09-18T12:16:02;100548.63;;;29.35;46.76
73063;BME280;61230;46.328;19.972;2023-09-18T12:18:32;100538.34;;;29.37;45.89
73063;BME280;61230;46.328;19.972;2023-09-18T12:21:05;100534.00;;;29.36;46.33
73063;BME280;61230;46.328;19.972;2023-09-18T12:23:40;100539.78;;;29.50;46.29
73063;BME280;61230;46.328;19.972;2023-09-18T12:26:10;100532.19;;;29.94;46.09
73063;BME280;61230;46.328;19.972;2023-09-18T12:28:41;100528.13;;;30.01;45.96
73063;BME280;61230;46.328;19.972;2023-09-18T12:31:13;100521.25;;;29.84;45.27
73063;BME280;61230;46.328;19.972;2023-09-18T12:33:42;100520.34;;;29.68;45.49
73063;BME280;61230;46.328;19.972;2023-09-18T12:36:19;100508.37;;;29.64;46.56
73063;BME280;61230;46.328;19.972;2023-09-18T12:38:57;100507.72;;;29.42;46.26
73063;BME280;61230;46.328;19.972;2023-09-18T12:41:28;100497.78;;;29.21;46.63
73063;BME280;61230;46.328;19.972;2023-09-18T12:44:00;100496.59;;;29.43;46.49
73063;BME280;61230;46.328;19.972;2023-09-18T12:46:29;100498.59;;;29.63;46.61
73063;BME280;61230;46.328;19.972;2023-09-18T12:48:57;100502.31;;;29.47;46.89
73063;BME280;61230;46.328;19.972;2023-09-18T12:51:31;100500.66;;;29.41;45.66
73063;BME280;61230;46.328;19.972;2023-09-18T12:54:02;100495.81;;;29.43;45.37
73063;BME280;61230;46.328;19.972;2023-09-18T12:56:40;100496.34;;;29.45;45.12
73063;BME280;61230;46.328;19.972;2023-09-18T12:59:09;100489.28;;;29.44;45.45
73063;BME280;61230;46.328;19.972;2023-09-18T13:01:47;100486.78;;;29.32;45.64